BAW35 LPMA-LPFR
Flight info
| Callsign | BAW35 |
|---|---|
| Flight time | N/A |
| Altitude | 36000 |
| Route | DEGUN DCT NARTA DCT GIMAL |
| Aircraft | A20N/M-V/N |
Departure
| Time | N/A |
|---|---|
| Airport | Cristiano Ronaldo International Airport (LPMA) |
Arrival
| Time | 2026-04-29 18:03 |
|---|---|
| Airport | Faro - Gago Coutinho International Airport (LPFR) |
| Time | Latitude | Longitude | Altitude | Speed | Heading |
|---|---|---|---|---|---|
| 2026-04-29 16:55 | 33.34432 | -15.75526 | 29239 ft | 469 kts | 49° |
| 2026-04-29 16:56 | 33.36640 | -15.72623 | 29845 ft | 465 kts | 49° |
| 2026-04-29 16:56 | 33.38801 | -15.69826 | 30737 ft | 449 kts | 49° |
| 2026-04-29 16:56 | 33.40795 | -15.67149 | 31638 ft | 434 kts | 50° |
| 2026-04-29 16:56 | 33.42919 | -15.64523 | 31906 ft | 438 kts | 43° |
| 2026-04-29 16:57 | 33.45190 | -15.62073 | 32068 ft | 442 kts | 43° |
| 2026-04-29 16:57 | 33.47454 | -15.59567 | 32239 ft | 446 kts | 44° |
| 2026-04-29 16:57 | 33.52054 | -15.54393 | 32375 ft | 459 kts | 44° |
| 2026-04-29 16:58 | 33.56770 | -15.49072 | 32510 ft | 471 kts | 44° |
| 2026-04-29 16:58 | 33.61606 | -15.43615 | 32639 ft | 483 kts | 44° |
| 2026-04-29 16:59 | 33.66550 | -15.38026 | 32931 ft | 490 kts | 44° |
| 2026-04-29 16:59 | 33.69029 | -15.35219 | 33235 ft | 490 kts | 44° |
| 2026-04-29 16:59 | 33.71509 | -15.32410 | 33543 ft | 489 kts | 44° |
| 2026-04-29 17:00 | 33.73950 | -15.29643 | 33833 ft | 489 kts | 44° |
| 2026-04-29 17:00 | 33.76422 | -15.26838 | 34088 ft | 489 kts | 44° |
| 2026-04-29 17:00 | 33.78893 | -15.24030 | 34339 ft | 489 kts | 44° |
| 2026-04-29 17:00 | 33.81348 | -15.21239 | 34566 ft | 489 kts | 44° |
| 2026-04-29 17:01 | 33.83815 | -15.18431 | 34807 ft | 488 kts | 44° |
| 2026-04-29 17:01 | 33.86275 | -15.15630 | 35044 ft | 487 kts | 44° |
| 2026-04-29 17:01 | 33.88733 | -15.12829 | 35277 ft | 486 kts | 44° |
| 2026-04-29 17:01 | 33.91186 | -15.10030 | 35493 ft | 486 kts | 44° |
| 2026-04-29 17:02 | 33.93636 | -15.07234 | 35704 ft | 485 kts | 44° |
| 2026-04-29 17:02 | 33.96083 | -15.04437 | 35912 ft | 485 kts | 44° |
| 2026-04-29 17:02 | 34.00978 | -14.98837 | 35965 ft | 483 kts | 44° |
| 2026-04-29 17:03 | 34.05859 | -14.93244 | 35952 ft | 483 kts | 44° |
| 2026-04-29 17:03 | 34.10733 | -14.87649 | 35966 ft | 484 kts | 44° |
| 2026-04-29 17:04 | 34.15580 | -14.82077 | 35965 ft | 484 kts | 44° |
| 2026-04-29 17:04 | 34.20455 | -14.76463 | 35968 ft | 484 kts | 44° |
| 2026-04-29 17:05 | 34.25323 | -14.70847 | 35963 ft | 484 kts | 44° |
| 2026-04-29 17:05 | 34.30188 | -14.65225 | 35963 ft | 484 kts | 44° |
| 2026-04-29 17:06 | 34.35050 | -14.59597 | 35968 ft | 484 kts | 44° |
| 2026-04-29 17:06 | 34.39909 | -14.53960 | 35964 ft | 484 kts | 44° |
| 2026-04-29 17:07 | 34.43953 | -14.49263 | 35961 ft | 484 kts | 44° |
| 2026-04-29 17:07 | 34.49599 | -14.42696 | 35962 ft | 484 kts | 44° |
| 2026-04-29 17:08 | 34.54458 | -14.37033 | 35963 ft | 484 kts | 44° |
| 2026-04-29 17:08 | 34.59322 | -14.31356 | 35965 ft | 484 kts | 44° |
| 2026-04-29 17:09 | 34.64177 | -14.25678 | 35965 ft | 485 kts | 44° |
| 2026-04-29 17:09 | 34.69014 | -14.20011 | 35959 ft | 485 kts | 43° |
| 2026-04-29 17:10 | 34.73855 | -14.14329 | 35964 ft | 485 kts | 43° |
| 2026-04-29 17:10 | 34.78726 | -14.08605 | 35964 ft | 485 kts | 43° |
| 2026-04-29 17:11 | 34.83577 | -14.02893 | 35967 ft | 485 kts | 43° |
| 2026-04-29 17:11 | 34.88421 | -13.97180 | 35966 ft | 485 kts | 43° |
| 2026-04-29 17:12 | 34.92449 | -13.92412 | 35965 ft | 482 kts | 45° |
| 2026-04-29 17:12 | 34.96368 | -13.87682 | 35969 ft | 472 kts | 38° |
| 2026-04-29 17:13 | 34.99639 | -13.84216 | 35937 ft | 457 kts | 32° |
| 2026-04-29 17:13 | 35.02008 | -13.81701 | 35968 ft | 447 kts | 32° |
| 2026-04-29 17:13 | 35.04316 | -13.79197 | 36286 ft | 441 kts | 42° |
| 2026-04-29 17:13 | 35.06502 | -13.76506 | 36135 ft | 450 kts | 46° |
| 2026-04-29 17:14 | 35.08622 | -13.73687 | 36010 ft | 450 kts | 46° |
| 2026-04-29 17:14 | 35.10778 | -13.70883 | 35964 ft | 455 kts | 45° |
| 2026-04-29 17:14 | 35.15281 | -13.65329 | 35960 ft | 465 kts | 43° |
| 2026-04-29 17:15 | 35.19922 | -13.59776 | 35961 ft | 474 kts | 43° |
| 2026-04-29 17:15 | 35.24692 | -13.54085 | 35959 ft | 483 kts | 43° |
| 2026-04-29 17:16 | 35.29532 | -13.48293 | 35956 ft | 485 kts | 43° |
| 2026-04-29 17:16 | 35.34341 | -13.42523 | 35957 ft | 484 kts | 43° |
| 2026-04-29 17:17 | 35.39120 | -13.36781 | 35956 ft | 484 kts | 43° |
| 2026-04-29 17:17 | 35.43940 | -13.30981 | 35954 ft | 484 kts | 43° |
| 2026-04-29 17:18 | 35.48740 | -13.25194 | 35957 ft | 484 kts | 43° |
| 2026-04-29 17:18 | 35.53540 | -13.19396 | 35957 ft | 484 kts | 43° |
| 2026-04-29 17:19 | 35.58348 | -13.13580 | 35952 ft | 485 kts | 43° |
| 2026-04-29 17:19 | 35.63124 | -13.07788 | 35961 ft | 484 kts | 43° |
| 2026-04-29 17:20 | 35.67925 | -13.01959 | 35959 ft | 484 kts | 43° |
| 2026-04-29 17:20 | 35.72718 | -12.96129 | 35958 ft | 484 kts | 43° |
| 2026-04-29 17:21 | 35.77505 | -12.90296 | 35954 ft | 484 kts | 43° |
| 2026-04-29 17:21 | 35.82290 | -12.84455 | 35950 ft | 484 kts | 43° |
| 2026-04-29 17:22 | 35.87040 | -12.78646 | 35955 ft | 484 kts | 43° |
| 2026-04-29 17:22 | 35.91825 | -12.72783 | 35958 ft | 484 kts | 42° |
| 2026-04-29 17:23 | 35.96598 | -12.66926 | 35957 ft | 484 kts | 42° |
| 2026-04-29 17:23 | 36.01379 | -12.61053 | 35950 ft | 484 kts | 43° |
| 2026-04-29 17:24 | 36.05310 | -12.54295 | 35943 ft | 488 kts | 64° |
| 2026-04-29 17:24 | 36.06539 | -12.50399 | 35940 ft | 488 kts | 75° |
| 2026-04-29 17:24 | 36.07297 | -12.46312 | 35939 ft | 487 kts | 78° |
| 2026-04-29 17:25 | 36.08712 | -12.38156 | 35932 ft | 488 kts | 78° |
| 2026-04-29 17:25 | 36.10149 | -12.29957 | 35935 ft | 488 kts | 78° |
| 2026-04-29 17:26 | 36.11578 | -12.21743 | 35941 ft | 489 kts | 78° |
| 2026-04-29 17:26 | 36.13001 | -12.13500 | 35948 ft | 490 kts | 78° |
| 2026-04-29 17:27 | 36.14419 | -12.05250 | 35945 ft | 490 kts | 78° |
| 2026-04-29 17:27 | 36.15834 | -11.96976 | 35942 ft | 492 kts | 78° |
| 2026-04-29 17:28 | 36.17246 | -11.88689 | 35949 ft | 492 kts | 78° |
| 2026-04-29 17:28 | 36.18654 | -11.80387 | 35954 ft | 493 kts | 78° |
| 2026-04-29 17:29 | 36.20050 | -11.72117 | 35958 ft | 494 kts | 78° |
| 2026-04-29 17:29 | 36.21224 | -11.65134 | 35961 ft | 494 kts | 78° |
| 2026-04-29 17:30 | 36.22849 | -11.55429 | 35953 ft | 493 kts | 78° |
| 2026-04-29 17:30 | 36.24234 | -11.47114 | 35952 ft | 492 kts | 78° |
| 2026-04-29 17:31 | 36.25614 | -11.38790 | 35950 ft | 492 kts | 78° |
| 2026-04-29 17:31 | 36.26977 | -11.30536 | 35950 ft | 493 kts | 78° |
| 2026-04-29 17:32 | 36.28348 | -11.22198 | 35952 ft | 494 kts | 78° |
| 2026-04-29 17:32 | 36.29713 | -11.13853 | 35940 ft | 493 kts | 78° |
| 2026-04-29 17:33 | 36.30396 | -11.09664 | 35754 ft | 498 kts | 78° |
| 2026-04-29 17:33 | 36.31085 | -11.05431 | 35510 ft | 503 kts | 78° |
| 2026-04-29 17:33 | 36.31780 | -11.01148 | 35261 ft | 509 kts | 78° |
| 2026-04-29 17:33 | 36.32480 | -10.96825 | 35018 ft | 513 kts | 78° |
| 2026-04-29 17:34 | 36.33183 | -10.92468 | 34775 ft | 516 kts | 78° |
| 2026-04-29 17:34 | 36.33863 | -10.88252 | 34596 ft | 518 kts | 78° |
| 2026-04-29 17:34 | 36.34820 | -10.82292 | 34403 ft | 519 kts | 78° |
| 2026-04-29 17:35 | 36.35997 | -10.74940 | 34176 ft | 519 kts | 78° |
| 2026-04-29 17:35 | 36.36926 | -10.69114 | 34010 ft | 519 kts | 78° |
| 2026-04-29 17:35 | 36.37626 | -10.64712 | 33859 ft | 520 kts | 78° |
| 2026-04-29 17:36 | 36.38323 | -10.60315 | 33716 ft | 520 kts | 78° |
| 2026-04-29 17:36 | 36.39020 | -10.55909 | 33559 ft | 520 kts | 78° |
| 2026-04-29 17:36 | 36.39710 | -10.51538 | 33316 ft | 511 kts | 79° |
| 2026-04-29 17:36 | 36.40386 | -10.47245 | 33050 ft | 499 kts | 79° |
| 2026-04-29 17:37 | 36.41044 | -10.43055 | 32785 ft | 491 kts | 79° |
| 2026-04-29 17:37 | 36.41699 | -10.38876 | 32531 ft | 497 kts | 79° |
| 2026-04-29 17:37 | 36.42361 | -10.34639 | 32273 ft | 501 kts | 79° |
| 2026-04-29 17:37 | 36.43024 | -10.30392 | 32018 ft | 500 kts | 79° |
| 2026-04-29 17:38 | 36.43684 | -10.26149 | 31765 ft | 500 kts | 79° |
| 2026-04-29 17:38 | 36.44335 | -10.21951 | 31519 ft | 501 kts | 79° |
| 2026-04-29 17:38 | 36.44993 | -10.17701 | 31277 ft | 503 kts | 79° |
| 2026-04-29 17:38 | 36.45654 | -10.13417 | 31035 ft | 504 kts | 79° |
| 2026-04-29 17:39 | 36.46314 | -10.09133 | 30785 ft | 504 kts | 79° |
| 2026-04-29 17:39 | 36.46971 | -10.04856 | 30542 ft | 504 kts | 79° |
| 2026-04-29 17:39 | 36.47626 | -10.00587 | 30303 ft | 502 kts | 79° |
| 2026-04-29 17:39 | 36.48278 | -9.96320 | 30068 ft | 500 kts | 79° |
| 2026-04-29 17:40 | 36.48915 | -9.92140 | 29802 ft | 498 kts | 79° |
| 2026-04-29 17:40 | 36.49557 | -9.87919 | 29516 ft | 496 kts | 79° |
| 2026-04-29 17:40 | 36.50196 | -9.83708 | 29247 ft | 494 kts | 79° |
| 2026-04-29 17:40 | 36.50832 | -9.79508 | 28967 ft | 494 kts | 79° |
| 2026-04-29 17:41 | 36.51464 | -9.75321 | 28699 ft | 492 kts | 79° |
| 2026-04-29 17:41 | 36.52093 | -9.71142 | 28431 ft | 490 kts | 79° |
| 2026-04-29 17:41 | 36.52716 | -9.66992 | 28162 ft | 488 kts | 79° |
| 2026-04-29 17:41 | 36.53338 | -9.62847 | 27898 ft | 486 kts | 79° |
| 2026-04-29 17:42 | 36.53952 | -9.58734 | 27635 ft | 484 kts | 79° |
| 2026-04-29 17:42 | 36.54568 | -9.54607 | 27376 ft | 482 kts | 80° |
| 2026-04-29 17:42 | 36.55176 | -9.50519 | 27123 ft | 481 kts | 80° |
| 2026-04-29 17:42 | 36.55783 | -9.46428 | 26693 ft | 481 kts | 80° |
| 2026-04-29 17:43 | 36.56388 | -9.42341 | 26123 ft | 480 kts | 80° |
| 2026-04-29 17:43 | 36.56989 | -9.38268 | 25557 ft | 477 kts | 80° |
| 2026-04-29 17:43 | 36.57585 | -9.34224 | 24992 ft | 474 kts | 80° |
| 2026-04-29 17:43 | 36.58176 | -9.30201 | 24418 ft | 471 kts | 80° |
| 2026-04-29 17:44 | 36.58753 | -9.26260 | 23849 ft | 468 kts | 80° |
| 2026-04-29 17:44 | 36.59336 | -9.22277 | 23220 ft | 466 kts | 80° |
| 2026-04-29 17:44 | 36.59911 | -9.18332 | 22705 ft | 460 kts | 80° |
| 2026-04-29 17:44 | 36.60477 | -9.14440 | 22156 ft | 455 kts | 80° |
| 2026-04-29 17:45 | 36.61036 | -9.10586 | 21608 ft | 450 kts | 80° |
| 2026-04-29 17:45 | 36.61590 | -9.06764 | 21062 ft | 446 kts | 80° |
| 2026-04-29 17:45 | 36.62138 | -9.02975 | 20522 ft | 442 kts | 80° |
| 2026-04-29 17:45 | 36.62678 | -8.99226 | 19976 ft | 438 kts | 80° |
| 2026-04-29 17:46 | 36.63213 | -8.95502 | 19444 ft | 435 kts | 80° |
| 2026-04-29 17:46 | 36.63739 | -8.91840 | 18915 ft | 432 kts | 80° |
| 2026-04-29 17:46 | 36.64262 | -8.88182 | 18347 ft | 431 kts | 80° |
| 2026-04-29 17:46 | 36.64785 | -8.84523 | 17816 ft | 426 kts | 80° |
| 2026-04-29 17:47 | 36.65302 | -8.80898 | 17288 ft | 421 kts | 80° |
| 2026-04-29 17:47 | 36.65808 | -8.77338 | 16770 ft | 417 kts | 80° |
| 2026-04-29 17:47 | 36.66314 | -8.73778 | 16251 ft | 413 kts | 80° |
| 2026-04-29 17:47 | 36.66809 | -8.70285 | 15739 ft | 409 kts | 81° |
| 2026-04-29 17:48 | 36.67303 | -8.66790 | 15230 ft | 406 kts | 81° |
| 2026-04-29 17:48 | 36.67782 | -8.63386 | 14738 ft | 403 kts | 81° |
| 2026-04-29 17:48 | 36.68270 | -8.59916 | 14187 ft | 402 kts | 81° |
| 2026-04-29 17:48 | 36.68743 | -8.56548 | 13727 ft | 398 kts | 81° |
| 2026-04-29 17:49 | 36.69218 | -8.53157 | 13223 ft | 394 kts | 81° |
| 2026-04-29 17:49 | 36.69686 | -8.49806 | 12727 ft | 390 kts | 81° |
| 2026-04-29 17:49 | 36.70148 | -8.46490 | 12249 ft | 386 kts | 81° |
| 2026-04-29 17:49 | 36.70606 | -8.43202 | 11769 ft | 382 kts | 81° |
| 2026-04-29 17:50 | 36.71057 | -8.39950 | 11297 ft | 379 kts | 81° |
| 2026-04-29 17:50 | 36.71503 | -8.36731 | 10828 ft | 375 kts | 81° |
| 2026-04-29 17:50 | 36.71944 | -8.33546 | 10461 ft | 369 kts | 81° |
| 2026-04-29 17:50 | 36.72366 | -8.30497 | 10315 ft | 355 kts | 81° |
| 2026-04-29 17:51 | 36.72777 | -8.27515 | 10179 ft | 342 kts | 81° |
| 2026-04-29 17:51 | 36.73270 | -8.24681 | 10068 ft | 329 kts | 73° |
| 2026-04-29 17:51 | 36.73922 | -8.21978 | 9806 ft | 323 kts | 73° |
| 2026-04-29 17:51 | 36.74558 | -8.19344 | 9614 ft | 313 kts | 73° |
| 2026-04-29 17:52 | 36.75189 | -8.16737 | 9486 ft | 315 kts | 73° |
| 2026-04-29 17:52 | 36.75618 | -8.14963 | 9397 ft | 316 kts | 73° |
| 2026-04-29 17:52 | 36.76456 | -8.11502 | 9224 ft | 313 kts | 73° |
| 2026-04-29 17:52 | 36.77085 | -8.08905 | 9094 ft | 312 kts | 73° |
| 2026-04-29 17:53 | 36.76762 | -8.10249 | 9161 ft | 313 kts | 73° |
| 2026-04-29 17:53 | 36.76639 | -8.10747 | 9179 ft | 313 kts | 73° |
| 2026-04-29 17:53 | 36.76773 | -8.10201 | 9126 ft | 310 kts | 73° |
| 2026-04-29 17:53 | 36.77397 | -8.07627 | 9020 ft | 311 kts | 73° |
| 2026-04-29 17:54 | 36.78018 | -8.05054 | 8833 ft | 309 kts | 73° |
| 2026-04-29 17:54 | 36.78637 | -8.02489 | 8479 ft | 308 kts | 73° |
| 2026-04-29 17:54 | 36.79250 | -7.99942 | 8144 ft | 306 kts | 73° |
| 2026-04-29 17:54 | 36.79861 | -7.97411 | 7749 ft | 304 kts | 73° |
| 2026-04-29 17:55 | 36.80467 | -7.94918 | 7392 ft | 302 kts | 73° |
| 2026-04-29 17:55 | 36.81067 | -7.92421 | 7092 ft | 298 kts | 73° |
| 2026-04-29 17:55 | 36.81653 | -7.89976 | 6736 ft | 296 kts | 73° |
| 2026-04-29 17:55 | 36.82247 | -7.87501 | 6380 ft | 294 kts | 73° |
| 2026-04-29 17:56 | 36.82828 | -7.85070 | 6140 ft | 287 kts | 73° |
| 2026-04-29 17:56 | 36.83390 | -7.82720 | 5950 ft | 279 kts | 73° |
| 2026-04-29 17:56 | 36.83967 | -7.80434 | 5703 ft | 272 kts | 65° |
| 2026-04-29 17:56 | 36.85045 | -7.78573 | 5467 ft | 261 kts | 37° |
| 2026-04-29 17:57 | 36.86486 | -7.77245 | 5259 ft | 254 kts | 33° |
| 2026-04-29 17:57 | 36.87894 | -7.75981 | 5008 ft | 244 kts | 33° |
| 2026-04-29 17:57 | 36.89267 | -7.74748 | 4601 ft | 244 kts | 33° |
| 2026-04-29 17:57 | 36.90173 | -7.73934 | 4338 ft | 242 kts | 33° |
| 2026-04-29 17:58 | 36.92160 | -7.72848 | 3769 ft | 231 kts | 359° |
| 2026-04-29 17:58 | 36.93681 | -7.73205 | 3245 ft | 224 kts | 328° |
| 2026-04-29 17:58 | 36.95004 | -7.74222 | 2967 ft | 224 kts | 324° |
| 2026-04-29 17:58 | 36.96323 | -7.75253 | 2996 ft | 218 kts | 324° |
| 2026-04-29 17:59 | 36.97532 | -7.76222 | 2999 ft | 197 kts | 318° |
| 2026-04-29 17:59 | 36.98435 | -7.77533 | 2976 ft | 199 kts | 295° |
| 2026-04-29 17:59 | 36.98916 | -7.79112 | 2802 ft | 192 kts | 282° |
| 2026-04-29 17:59 | 36.99193 | -7.80746 | 2533 ft | 190 kts | 278° |
| 2026-04-29 18:00 | 36.99338 | -7.81826 | 2358 ft | 189 kts | 279° |
| 2026-04-29 18:00 | 36.99570 | -7.83438 | 2115 ft | 187 kts | 278° |
| 2026-04-29 18:00 | 36.99864 | -7.85492 | 1799 ft | 176 kts | 277° |
| 2026-04-29 18:00 | 37.00068 | -7.86929 | 1553 ft | 158 kts | 278° |
| 2026-04-29 18:01 | 37.00194 | -7.87802 | 1419 ft | 144 kts | 278° |
| 2026-04-29 18:01 | 37.00362 | -7.89003 | 1188 ft | 139 kts | 277° |
| 2026-04-29 18:01 | 37.00534 | -7.90205 | 1031 ft | 143 kts | 277° |
| 2026-04-29 18:01 | 37.00720 | -7.91412 | 818 ft | 137 kts | 277° |
| 2026-04-29 18:02 | 37.00909 | -7.92569 | 658 ft | 136 kts | 276° |
| 2026-04-29 18:02 | 37.01054 | -7.93753 | 416 ft | 138 kts | 275° |
| 2026-04-29 18:02 | 37.01207 | -7.94909 | 219 ft | 134 kts | 276° |
| 2026-04-29 18:02 | 37.01369 | -7.96053 | 70 ft | 133 kts | 276° |
| 2026-04-29 18:03 | 37.01531 | -7.97141 | 20 ft | 114 kts | 276° |
| 2026-04-29 18:03 | 37.01609 | -7.97741 | 18 ft | 27 kts | 280° |
| 2026-04-29 18:03 | 37.01677 | -7.97851 | 19 ft | 17 kts | 13° |
| 2026-04-29 18:03 | 37.01753 | -7.97735 | 20 ft | 19 kts | 68° |
| 2026-04-29 18:04 | 37.01763 | -7.97561 | 20 ft | 21 kts | 93° |
| 2026-04-29 18:04 | 37.01738 | -7.97367 | 20 ft | 24 kts | 101° |
| 2026-04-29 18:04 | 37.01707 | -7.97158 | 20 ft | 23 kts | 100° |
| 2026-04-29 18:04 | 37.01678 | -7.96963 | 20 ft | 16 kts | 100° |
| 2026-04-29 18:05 | 37.01658 | -7.96814 | 20 ft | 19 kts | 100° |
| 2026-04-29 18:05 | 37.01634 | -7.96648 | 20 ft | 18 kts | 99° |
| 2026-04-29 18:05 | 37.01656 | -7.96541 | 21 ft | 12 kts | 23° |
| 2026-04-29 18:05 | 37.01742 | -7.96515 | 20 ft | 12 kts | 17° |
| 2026-04-29 18:06 | 37.01770 | -7.96433 | 20 ft | 11 kts | 99° |
| 2026-04-29 18:06 | 37.01755 | -7.96329 | 20 ft | 10 kts | 101° |
| 2026-04-29 18:06 | 37.01728 | -7.96303 | 20 ft | 5 kts | 185° |
| 2026-04-29 18:06 | 37.01690 | -7.96311 | 20 ft | 4 kts | 191° |
| 2026-04-29 18:07 | 37.01678 | -7.96314 | 20 ft | 2 kts | 190° |
| 2026-04-29 18:07 | 37.01671 | -7.96316 | 20 ft | 0 kts | 190° |